sensor_id;sensor_type;location;lat;lon;timestamp;temperature;humidity
3136;DHT22;1578;47.658;9.922;2023-06-22T00:00:49;19.90;55.90
3136;DHT22;1578;47.658;9.922;2023-06-22T00:03:15;19.90;54.80
3136;DHT22;1578;47.658;9.922;2023-06-22T00:05:44;19.80;55.10
3136;DHT22;1578;47.658;9.922;2023-06-22T00:08:10;19.80;53.80
3136;DHT22;1578;47.658;9.922;2023-06-22T00:10:36;19.80;54.10
3136;DHT22;1578;47.658;9.922;2023-06-22T00:13:01;19.70;53.20
3136;DHT22;1578;47.658;9.922;2023-06-22T00:15:27;19.70;53.90
3136;DHT22;1578;47.658;9.922;2023-06-22T00:17:54;19.60;54.50
3136;DHT22;1578;47.658;9.922;2023-06-22T00:20:19;19.50;54.20
3136;DHT22;1578;47.658;9.922;2023-06-22T00:22:45;19.50;54.30
3136;DHT22;1578;47.658;9.922;2023-06-22T00:25:11;19.50;55.80
3136;DHT22;1578;47.658;9.922;2023-06-22T00:27:37;19.50;56.50
3136;DHT22;1578;47.658;9.922;2023-06-22T00:30:03;19.50;52.70
3136;DHT22;1578;47.658;9.922;2023-06-22T00:32:29;19.40;54.10
3136;DHT22;1578;47.658;9.922;2023-06-22T00:34:57;19.40;55.60
3136;DHT22;1578;47.658;9.922;2023-06-22T00:37:23;19.40;54.50
3136;DHT22;1578;47.658;9.922;2023-06-22T00:39:51;19.20;55.80
3136;DHT22;1578;47.658;9.922;2023-06-22T00:42:17;19.20;54.60
3136;DHT22;1578;47.658;9.922;2023-06-22T00:44:43;19.20;57.60
3136;DHT22;1578;47.658;9.922;2023-06-22T00:47:10;19.00;57.10
3136;DHT22;1578;47.658;9.922;2023-06-22T00:49:38;19.00;57.20
3136;DHT22;1578;47.658;9.922;2023-06-22T00:52:05;19.00;57.50
3136;DHT22;1578;47.658;9.922;2023-06-22T00:54:35;18.90;59.30
3136;DHT22;1578;47.658;9.922;2023-06-22T00:57:02;18.80;62.10
3136;DHT22;1578;47.658;9.922;2023-06-22T00:59:28;18.70;62.50
3136;DHT22;1578;47.658;9.922;2023-06-22T01:01:54;18.70;63.20
3136;DHT22;1578;47.658;9.922;2023-06-22T01:04:21;18.70;60.10
3136;DHT22;1578;47.658;9.922;2023-06-22T01:07:10;18.60;60.00
3136;DHT22;1578;47.658;9.922;2023-06-22T01:09:53;18.50;62.40
3136;DHT22;1578;47.658;9.922;2023-06-22T01:12:22;18.50;59.60
3136;DHT22;1578;47.658;9.922;2023-06-22T01:14:58;18.50;60.50
3136;DHT22;1578;47.658;9.922;2023-06-22T01:17:27;18.50;60.40
3136;DHT22;1578;47.658;9.922;2023-06-22T01:19:55;18.30;62.30
3136;DHT22;1578;47.658;9.922;2023-06-22T01:22:23;18.30;63.50
3136;DHT22;1578;47.658;9.922;2023-06-22T01:24:57;18.20;60.00
3136;DHT22;1578;47.658;9.922;2023-06-22T01:30:07;18.10;63.30
3136;DHT22;1578;47.658;9.922;2023-06-22T01:32:37;18.10;65.60
3136;DHT22;1578;47.658;9.922;2023-06-22T01:35:05;18.00;65.40
3136;DHT22;1578;47.658;9.922;2023-06-22T01:37:33;18.00;65.70
3136;DHT22;1578;47.658;9.922;2023-06-22T01:40:00;18.00;64.70
3136;DHT22;1578;47.658;9.922;2023-06-22T01:42:27;17.90;65.80
3136;DHT22;1578;47.658;9.922;2023-06-22T01:44:53;17.80;65.60
3136;DHT22;1578;47.658;9.922;2023-06-22T01:47:24;17.80;63.90
3136;DHT22;1578;47.658;9.922;2023-06-22T01:49:51;17.80;63.20
3136;DHT22;1578;47.658;9.922;2023-06-22T01:52:17;17.70;66.10
3136;DHT22;1578;47.658;9.922;2023-06-22T01:54:43;17.70;65.00
3136;DHT22;1578;47.658;9.922;2023-06-22T01:57:09;17.70;65.50
3136;DHT22;1578;47.658;9.922;2023-06-22T01:59:41;17.70;67.80
3136;DHT22;1578;47.658;9.922;2023-06-22T02:02:11;17.70;66.10
3136;DHT22;1578;47.658;9.922;2023-06-22T02:05:08;17.60;67.50
3136;DHT22;1578;47.658;9.922;2023-06-22T02:10:23;17.60;66.00
3136;DHT22;1578;47.658;9.922;2023-06-22T02:12:51;17.60;69.00
3136;DHT22;1578;47.658;9.922;2023-06-22T02:15:21;17.60;68.90
3136;DHT22;1578;47.658;9.922;2023-06-22T02:17:47;17.50;67.10
3136;DHT22;1578;47.658;9.922;2023-06-22T02:20:16;17.40;67.40
3136;DHT22;1578;47.658;9.922;2023-06-22T02:22:42;17.50;69.70
3136;DHT22;1578;47.658;9.922;2023-06-22T02:25:08;17.40;68.90
3136;DHT22;1578;47.658;9.922;2023-06-22T02:27:33;17.40;69.40
3136;DHT22;1578;47.658;9.922;2023-06-22T02:29:59;17.40;68.00
3136;DHT22;1578;47.658;9.922;2023-06-22T02:32:25;17.40;68.10
3136;DHT22;1578;47.658;9.922;2023-06-22T02:34:50;17.40;68.60
3136;DHT22;1578;47.658;9.922;2023-06-22T02:37:16;17.40;67.70
3136;DHT22;1578;47.658;9.922;2023-06-22T02:39:42;17.40;67.40
3136;DHT22;1578;47.658;9.922;2023-06-22T02:42:07;17.40;67.90
3136;DHT22;1578;47.658;9.922;2023-06-22T02:44:33;17.40;69.90
3136;DHT22;1578;47.658;9.922;2023-06-22T02:46:59;17.30;70.90
3136;DHT22;1578;47.658;9.922;2023-06-22T02:49:24;17.20;71.90
3136;DHT22;1578;47.658;9.922;2023-06-22T02:51:50;17.20;71.10
3136;DHT22;1578;47.658;9.922;2023-06-22T02:54:16;17.10;70.60
3136;DHT22;1578;47.658;9.922;2023-06-22T02:56:42;17.20;71.90
3136;DHT22;1578;47.658;9.922;2023-06-22T02:59:10;17.20;71.90
3136;DHT22;1578;47.658;9.922;2023-06-22T03:01:37;17.20;72.80
3136;DHT22;1578;47.658;9.922;2023-06-22T03:04:06;17.30;72.00
3136;DHT22;1578;47.658;9.922;2023-06-22T03:06:33;17.30;72.00
3136;DHT22;1578;47.658;9.922;2023-06-22T03:09:07;17.20;71.50
3136;DHT22;1578;47.658;9.922;2023-06-22T03:11:34;17.20;70.60
3136;DHT22;1578;47.658;9.922;2023-06-22T03:14:00;17.30;72.00
3136;DHT22;1578;47.658;9.922;2023-06-22T03:16:26;17.30;70.50
3136;DHT22;1578;47.658;9.922;2023-06-22T03:18:54;17.20;70.30
3136;DHT22;1578;47.658;9.922;2023-06-22T03:21:22;17.20;69.40
3136;DHT22;1578;47.658;9.922;2023-06-22T03:23:48;17.10;68.10
3136;DHT22;1578;47.658;9.922;2023-06-22T03:26:16;17.20;70.20
3136;DHT22;1578;47.658;9.922;2023-06-22T03:28:42;17.20;71.10
3136;DHT22;1578;47.658;9.922;2023-06-22T03:31:08;17.20;71.10
3136;DHT22;1578;47.658;9.922;2023-06-22T03:33:34;17.10;70.50
3136;DHT22;1578;47.658;9.922;2023-06-22T03:35:59;17.10;70.20
3136;DHT22;1578;47.658;9.922;2023-06-22T03:38:25;17.00;70.10
3136;DHT22;1578;47.658;9.922;2023-06-22T03:40:51;17.10;70.40
3136;DHT22;1578;47.658;9.922;2023-06-22T03:43:16;17.10;67.30
3136;DHT22;1578;47.658;9.922;2023-06-22T03:45:42;17.10;68.60
3136;DHT22;1578;47.658;9.922;2023-06-22T03:48:11;17.10;69.60
3136;DHT22;1578;47.658;9.922;2023-06-22T03:50:36;17.00;72.30
3136;DHT22;1578;47.658;9.922;2023-06-22T03:53:02;16.90;74.20
3136;DHT22;1578;47.658;9.922;2023-06-22T03:55:28;16.90;75.50
3136;DHT22;1578;47.658;9.922;2023-06-22T03:57:54;16.90;76.20
3136;DHT22;1578;47.658;9.922;2023-06-22T04:00:25;16.80;77.30
3136;DHT22;1578;47.658;9.922;2023-06-22T04:02:51;16.80;78.90
3136;DHT22;1578;47.658;9.922;2023-06-22T04:05:16;16.80;78.10
3136;DHT22;1578;47.658;9.922;2023-06-22T04:07:45;16.80;78.70
3136;DHT22;1578;47.658;9.922;2023-06-22T04:10:11;16.90;79.20
3136;DHT22;1578;47.658;9.922;2023-06-22T04:12:36;16.90;77.40
3136;DHT22;1578;47.658;9.922;2023-06-22T04:15:02;16.90;77.90
3136;DHT22;1578;47.658;9.922;2023-06-22T04:17:28;17.00;78.30
3136;DHT22;1578;47.658;9.922;2023-06-22T04:19:54;16.90;79.00
3136;DHT22;1578;47.658;9.922;2023-06-22T04:22:19;17.00;79.00
3136;DHT22;1578;47.658;9.922;2023-06-22T04:24:45;17.00;80.00
3136;DHT22;1578;47.658;9.922;2023-06-22T04:27:10;17.10;82.60
3136;DHT22;1578;47.658;9.922;2023-06-22T04:29:36;17.20;83.30
3136;DHT22;1578;47.658;9.922;2023-06-22T04:32:03;17.30;82.20
3136;DHT22;1578;47.658;9.922;2023-06-22T04:34:31;17.40;81.00
3136;DHT22;1578;47.658;9.922;2023-06-22T04:36:56;17.40;81.30
3136;DHT22;1578;47.658;9.922;2023-06-22T04:39:22;17.50;81.30
3136;DHT22;1578;47.658;9.922;2023-06-22T04:41:49;17.60;79.60
3136;DHT22;1578;47.658;9.922;2023-06-22T04:44:19;17.60;77.00
3136;DHT22;1578;47.658;9.922;2023-06-22T04:46:55;17.70;79.10
3136;DHT22;1578;47.658;9.922;2023-06-22T04:49:26;17.70;79.30
3136;DHT22;1578;47.658;9.922;2023-06-22T04:51:59;17.80;77.10
3136;DHT22;1578;47.658;9.922;2023-06-22T04:54:25;18.00;77.30
3136;DHT22;1578;47.658;9.922;2023-06-22T04:56:51;18.10;77.40
3136;DHT22;1578;47.658;9.922;2023-06-22T04:59:24;18.10;78.50
3136;DHT22;1578;47.658;9.922;2023-06-22T05:01:54;18.10;79.50
3136;DHT22;1578;47.658;9.922;2023-06-22T05:04:19;18.20;77.50
3136;DHT22;1578;47.658;9.922;2023-06-22T05:06:46;18.30;78.40
3136;DHT22;1578;47.658;9.922;2023-06-22T05:09:12;18.40;80.20
3136;DHT22;1578;47.658;9.922;2023-06-22T05:11:37;18.40;81.10
3136;DHT22;1578;47.658;9.922;2023-06-22T05:14:03;18.50;80.90
3136;DHT22;1578;47.658;9.922;2023-06-22T05:16:29;18.60;79.30
3136;DHT22;1578;47.658;9.922;2023-06-22T05:18:55;18.80;75.70
3136;DHT22;1578;47.658;9.922;2023-06-22T05:21:25;18.90;75.60
3136;DHT22;1578;47.658;9.922;2023-06-22T05:23:55;19.00;78.20
3136;DHT22;1578;47.658;9.922;2023-06-22T05:26:26;19.20;78.40
3136;DHT22;1578;47.658;9.922;2023-06-22T05:28:51;19.50;75.90
3136;DHT22;1578;47.658;9.922;2023-06-22T05:31:17;19.80;74.10
3136;DHT22;1578;47.658;9.922;2023-06-22T05:33:45;20.20;73.10
3136;DHT22;1578;47.658;9.922;2023-06-22T05:36:11;20.60;68.00
3136;DHT22;1578;47.658;9.922;2023-06-22T05:38:38;21.10;66.30
3136;DHT22;1578;47.658;9.922;2023-06-22T05:41:04;21.50;61.60
3136;DHT22;1578;47.658;9.922;2023-06-22T05:43:30;22.00;55.90
3136;DHT22;1578;47.658;9.922;2023-06-22T05:45:56;22.50;50.30
3136;DHT22;1578;47.658;9.922;2023-06-22T05:48:21;22.80;46.60
3136;DHT22;1578;47.658;9.922;2023-06-22T05:50:47;23.20;42.60
3136;DHT22;1578;47.658;9.922;2023-06-22T05:53:13;23.50;40.50
3136;DHT22;1578;47.658;9.922;2023-06-22T05:55:38;23.70;39.50
3136;DHT22;1578;47.658;9.922;2023-06-22T05:58:04;23.90;37.40
3136;DHT22;1578;47.658;9.922;2023-06-22T06:00:30;24.10;32.50
3136;DHT22;1578;47.658;9.922;2023-06-22T06:02:56;24.30;30.50
3136;DHT22;1578;47.658;9.922;2023-06-22T06:05:22;24.50;30.10
3136;DHT22;1578;47.658;9.922;2023-06-22T06:07:49;24.60;26.30
3136;DHT22;1578;47.658;9.922;2023-06-22T06:10:15;24.70;27.40
3136;DHT22;1578;47.658;9.922;2023-06-22T06:12:40;24.90;29.50
3136;DHT22;1578;47.658;9.922;2023-06-22T06:15:06;25.10;28.30
3136;DHT22;1578;47.658;9.922;2023-06-22T06:17:32;25.40;27.10
3136;DHT22;1578;47.658;9.922;2023-06-22T06:19:59;25.60;24.20
3136;DHT22;1578;47.658;9.922;2023-06-22T06:22:25;25.80;22.40
3136;DHT22;1578;47.658;9.922;2023-06-22T06:24:51;25.90;24.70
3136;DHT22;1578;47.658;9.922;2023-06-22T06:27:16;26.00;21.40
3136;DHT22;1578;47.658;9.922;2023-06-22T06:29:45;26.10;22.50
3136;DHT22;1578;47.658;9.922;2023-06-22T06:32:13;26.40;23.40
3136;DHT22;1578;47.658;9.922;2023-06-22T06:34:43;26.50;20.50
3136;DHT22;1578;47.658;9.922;2023-06-22T06:37:09;26.70;20.50
3136;DHT22;1578;47.658;9.922;2023-06-22T06:39:34;26.80;19.30
3136;DHT22;1578;47.658;9.922;2023-06-22T06:42:00;26.80;19.30
3136;DHT22;1578;47.658;9.922;2023-06-22T06:44:25;26.80;21.20
3136;DHT22;1578;47.658;9.922;2023-06-22T06:46:51;26.80;21.50
3136;DHT22;1578;47.658;9.922;2023-06-22T06:49:17;26.70;21.10
3136;DHT22;1578;47.658;9.922;2023-06-22T06:51:42;26.90;20.30
3136;DHT22;1578;47.658;9.922;2023-06-22T06:54:08;27.10;18.70
3136;DHT22;1578;47.658;9.922;2023-06-22T06:56:33;27.10;20.10
3136;DHT22;1578;47.658;9.922;2023-06-22T06:58:59;27.30;19.00
3136;DHT22;1578;47.658;9.922;2023-06-22T07:01:25;27.50;18.60
3136;DHT22;1578;47.658;9.922;2023-06-22T07:03:50;27.80;16.70
3136;DHT22;1578;47.658;9.922;2023-06-22T07:06:16;27.90;17.00
3136;DHT22;1578;47.658;9.922;2023-06-22T07:08:42;28.10;17.30
3136;DHT22;1578;47.658;9.922;2023-06-22T07:11:08;28.20;14.70
3136;DHT22;1578;47.658;9.922;2023-06-22T07:13:34;28.30;15.30
3136;DHT22;1578;47.658;9.922;2023-06-22T07:16:00;28.60;14.70
3136;DHT22;1578;47.658;9.922;2023-06-22T07:18:26;28.70;14.50
3136;DHT22;1578;47.658;9.922;2023-06-22T07:20:52;28.90;15.00
3136;DHT22;1578;47.658;9.922;2023-06-22T07:23:18;29.10;14.40
3136;DHT22;1578;47.658;9.922;2023-06-22T07:25:43;29.30;9.20
3136;DHT22;1578;47.658;9.922;2023-06-22T07:28:09;29.40;10.40
3136;DHT22;1578;47.658;9.922;2023-06-22T07:30:34;29.40;10.60
3136;DHT22;1578;47.658;9.922;2023-06-22T07:33:00;29.60;11.30
3136;DHT22;1578;47.658;9.922;2023-06-22T07:35:30;29.90;9.80
3136;DHT22;1578;47.658;9.922;2023-06-22T07:37:56;30.00;7.40
3136;DHT22;1578;47.658;9.922;2023-06-22T07:40:21;30.00;8.70
3136;DHT22;1578;47.658;9.922;2023-06-22T07:42:48;30.00;9.80
3136;DHT22;1578;47.658;9.922;2023-06-22T07:45:16;30.10;9.50
3136;DHT22;1578;47.658;9.922;2023-06-22T07:47:42;29.90;12.00
3136;DHT22;1578;47.658;9.922;2023-06-22T07:50:08;30.10;12.60
3136;DHT22;1578;47.658;9.922;2023-06-22T07:52:37;30.30;9.60
3136;DHT22;1578;47.658;9.922;2023-06-22T07:55:03;30.40;9.90
3136;DHT22;1578;47.658;9.922;2023-06-22T07:57:30;30.70;8.10
3136;DHT22;1578;47.658;9.922;2023-06-22T08:00:08;31.00;7.70
3136;DHT22;1578;47.658;9.922;2023-06-22T08:02:42;31.00;5.60
3136;DHT22;1578;47.658;9.922;2023-06-22T08:05:09;30.40;9.40
3136;DHT22;1578;47.658;9.922;2023-06-22T08:07:35;30.40;10.10
3136;DHT22;1578;47.658;9.922;2023-06-22T08:10:03;30.50;9.90
3136;DHT22;1578;47.658;9.922;2023-06-22T08:12:29;30.80;8.70
3136;DHT22;1578;47.658;9.922;2023-06-22T08:14:55;31.00;6.60
3136;DHT22;1578;47.658;9.922;2023-06-22T08:17:23;31.30;7.60
3136;DHT22;1578;47.658;9.922;2023-06-22T08:19:49;31.70;4.70
3136;DHT22;1578;47.658;9.922;2023-06-22T08:22:16;32.10;4.90
3136;DHT22;1578;47.658;9.922;2023-06-22T08:24:43;32.10;2.60
3136;DHT22;1578;47.658;9.922;2023-06-22T08:27:10;32.00;3.40
3136;DHT22;1578;47.658;9.922;2023-06-22T08:29:39;32.00;3.20
3136;DHT22;1578;47.658;9.922;2023-06-22T08:32:04;32.30;4.20
3136;DHT22;1578;47.658;9.922;2023-06-22T08:34:30;32.40;3.10
3136;DHT22;1578;47.658;9.922;2023-06-22T08:36:56;32.10;3.90
3136;DHT22;1578;47.658;9.922;2023-06-22T08:39:22;31.80;4.80
3136;DHT22;1578;47.658;9.922;2023-06-22T08:41:48;31.30;4.50
3136;DHT22;1578;47.658;9.922;2023-06-22T08:44:15;31.30;6.80
3136;DHT22;1578;47.658;9.922;2023-06-22T08:46:40;31.40;5.30
3136;DHT22;1578;47.658;9.922;2023-06-22T08:49:07;31.30;6.20
3136;DHT22;1578;47.658;9.922;2023-06-22T08:51:33;31.70;6.40
3136;DHT22;1578;47.658;9.922;2023-06-22T08:53:59;32.20;5.00
3136;DHT22;1578;47.658;9.922;2023-06-22T08:56:24;32.40;2.80
3136;DHT22;1578;47.658;9.922;2023-06-22T08:58:50;32.00;3.60
3136;DHT22;1578;47.658;9.922;2023-06-22T09:01:16;31.40;4.50
3136;DHT22;1578;47.658;9.922;2023-06-22T09:03:42;30.00;9.60
3136;DHT22;1578;47.658;9.922;2023-06-22T09:06:08;28.60;14.20
3136;DHT22;1578;47.658;9.922;2023-06-22T09:08:35;28.10;18.20
3136;DHT22;1578;47.658;9.922;2023-06-22T09:11:01;27.30;22.60
3136;DHT22;1578;47.658;9.922;2023-06-22T09:15:54;26.20;28.50
3136;DHT22;1578;47.658;9.922;2023-06-22T09:18:20;26.10;29.40
3136;DHT22;1578;47.658;9.922;2023-06-22T09:20:45;25.80;30.00
3136;DHT22;1578;47.658;9.922;2023-06-22T09:23:11;25.90;31.50
3136;DHT22;1578;47.658;9.922;2023-06-22T09:25:37;25.70;33.60
3136;DHT22;1578;47.658;9.922;2023-06-22T09:28:02;25.50;33.20
3136;DHT22;1578;47.658;9.922;2023-06-22T09:30:28;25.80;32.50
3136;DHT22;1578;47.658;9.922;2023-06-22T09:32:54;25.60;30.30
3136;DHT22;1578;47.658;9.922;2023-06-22T09:35:20;25.30;33.20
3136;DHT22;1578;47.658;9.922;2023-06-22T09:37:46;25.30;33.50
3136;DHT22;1578;47.658;9.922;2023-06-22T09:40:15;25.20;32.70
3136;DHT22;1578;47.658;9.922;2023-06-22T09:42:42;25.20;32.00
3136;DHT22;1578;47.658;9.922;2023-06-22T09:45:08;25.10;33.70
3136;DHT22;1578;47.658;9.922;2023-06-22T09:47:34;25.10;35.00
3136;DHT22;1578;47.658;9.922;2023-06-22T09:49:59;25.40;32.00
3136;DHT22;1578;47.658;9.922;2023-06-22T09:52:25;25.30;31.90
3136;DHT22;1578;47.658;9.922;2023-06-22T09:54:51;25.10;35.70
3136;DHT22;1578;47.658;9.922;2023-06-22T09:57:16;25.30;32.70
3136;DHT22;1578;47.658;9.922;2023-06-22T09:59:42;25.80;32.10
3136;DHT22;1578;47.658;9.922;2023-06-22T10:02:08;26.00;29.10
3136;DHT22;1578;47.658;9.922;2023-06-22T10:04:35;26.20;28.70
3136;DHT22;1578;47.658;9.922;2023-06-22T10:07:01;26.50;26.30
3136;DHT22;1578;47.658;9.922;2023-06-22T10:09:27;26.90;28.10
3136;DHT22;1578;47.658;9.922;2023-06-22T10:11:53;27.30;25.90
3136;DHT22;1578;47.658;9.922;2023-06-22T10:14:19;27.60;23.70
3136;DHT22;1578;47.658;9.922;2023-06-22T10:16:44;27.30;27.20
3136;DHT22;1578;47.658;9.922;2023-06-22T10:19:10;27.00;27.60
3136;DHT22;1578;47.658;9.922;2023-06-22T10:21:36;26.70;28.00
3136;DHT22;1578;47.658;9.922;2023-06-22T10:24:03;26.70;31.30
3136;DHT22;1578;47.658;9.922;2023-06-22T10:26:35;26.90;25.70
3136;DHT22;1578;47.658;9.922;2023-06-22T10:29:02;27.30;23.10
3136;DHT22;1578;47.658;9.922;2023-06-22T10:31:28;27.70;22.60
3136;DHT22;1578;47.658;9.922;2023-06-22T10:33:54;28.20;20.00
3136;DHT22;1578;47.658;9.922;2023-06-22T10:36:21;27.80;19.90
3136;DHT22;1578;47.658;9.922;2023-06-22T10:38:47;27.50;21.80
3136;DHT22;1578;47.658;9.922;2023-06-22T10:41:13;27.50;23.70
3136;DHT22;1578;47.658;9.922;2023-06-22T10:43:39;27.80;20.60
3136;DHT22;1578;47.658;9.922;2023-06-22T10:46:05;28.20;20.00
3136;DHT22;1578;47.658;9.922;2023-06-22T10:48:31;28.30;18.70
3136;DHT22;1578;47.658;9.922;2023-06-22T10:50:57;28.60;17.70
3136;DHT22;1578;47.658;9.922;2023-06-22T10:53:37;28.80;16.80
3136;DHT22;1578;47.658;9.922;2023-06-22T10:56:24;28.80;17.90
3136;DHT22;1578;47.658;9.922;2023-06-22T10:58:50;29.10;16.50
3136;DHT22;1578;47.658;9.922;2023-06-22T11:01:15;29.40;14.20
3136;DHT22;1578;47.658;9.922;2023-06-22T11:03:41;29.70;13.90
3136;DHT22;1578;47.658;9.922;2023-06-22T11:06:07;29.90;13.00
3136;DHT22;1578;47.658;9.922;2023-06-22T11:08:32;30.10;12.60
3136;DHT22;1578;47.658;9.922;2023-06-22T11:10:58;30.30;12.70
3136;DHT22;1578;47.658;9.922;2023-06-22T11:13:23;30.20;11.60
3136;DHT22;1578;47.658;9.922;2023-06-22T11:15:50;30.10;9.40
3136;DHT22;1578;47.658;9.922;2023-06-22T11:18:16;30.30;9.30
3136;DHT22;1578;47.658;9.922;2023-06-22T11:20:42;30.50;10.40
3136;DHT22;1578;47.658;9.922;2023-06-22T11:23:08;30.40;9.10
3136;DHT22;1578;47.658;9.922;2023-06-22T11:25:34;29.90;12.50
3136;DHT22;1578;47.658;9.922;2023-06-22T11:28:04;29.70;11.60
3136;DHT22;1578;47.658;9.922;2023-06-22T11:30:30;29.40;11.50
3136;DHT22;1578;47.658;9.922;2023-06-22T11:32:58;29.30;13.70
3136;DHT22;1578;47.658;9.922;2023-06-22T11:35:24;28.80;14.10
3136;DHT22;1578;47.658;9.922;2023-06-22T11:37:49;29.00;13.70
3136;DHT22;1578;47.658;9.922;2023-06-22T11:40:15;29.30;12.10
3136;DHT22;1578;47.658;9.922;2023-06-22T11:42:43;29.50;13.80
3136;DHT22;1578;47.658;9.922;2023-06-22T11:45:08;29.90;10.90
3136;DHT22;1578;47.658;9.922;2023-06-22T11:47:34;30.10;11.30
3136;DHT22;1578;47.658;9.922;2023-06-22T11:50:00;30.10;10.10
3136;DHT22;1578;47.658;9.922;2023-06-22T11:52:26;30.30;11.00
3136;DHT22;1578;47.658;9.922;2023-06-22T11:54:52;31.00;7.40
3136;DHT22;1578;47.658;9.922;2023-06-22T11:57:18;31.60;6.60
3136;DHT22;1578;47.658;9.922;2023-06-22T11:59:44;32.10;4.70
3136;DHT22;1578;47.658;9.922;2023-06-22T12:02:09;32.50;3.20
3136;DHT22;1578;47.658;9.922;2023-06-22T12:04:35;32.40;1.60
3136;DHT22;1578;47.658;9.922;2023-06-22T12:07:01;32.00;1.90
3136;DHT22;1578;47.658;9.922;2023-06-22T12:09:27;32.00;3.20
3136;DHT22;1578;47.658;9.922;2023-06-22T12:11:54;32.00;2.10
3136;DHT22;1578;47.658;9.922;2023-06-22T12:14:20;31.30;3.90
3136;DHT22;1578;47.658;9.922;2023-06-22T12:16:45;30.50;4.00
3136;DHT22;1578;47.658;9.922;2023-06-22T12:19:11;30.10;3.80
3136;DHT22;1578;47.658;9.922;2023-06-22T12:21:37;29.70;6.00
3136;DHT22;1578;47.658;9.922;2023-06-22T12:24:03;29.80;8.30
3136;DHT22;1578;47.658;9.922;2023-06-22T12:26:29;30.10;4.90
3136;DHT22;1578;47.658;9.922;2023-06-22T12:28:54;30.40;4.40
3136;DHT22;1578;47.658;9.922;2023-06-22T12:31:20;30.40;5.90
3136;DHT22;1578;47.658;9.922;2023-06-22T12:33:45;30.10;4.00
3136;DHT22;1578;47.658;9.922;2023-06-22T12:36:11;29.60;8.00
3136;DHT22;1578;47.658;9.922;2023-06-22T12:38:37;29.40;7.30
3136;DHT22;1578;47.658;9.922;2023-06-22T12:41:02;29.40;8.60
3136;DHT22;1578;47.658;9.922;2023-06-22T12:43:28;29.70;7.60
3136;DHT22;1578;47.658;9.922;2023-06-22T12:45:53;29.90;7.50
3136;DHT22;1578;47.658;9.922;2023-06-22T12:48:19;30.10;7.10
3136;DHT22;1578;47.658;9.922;2023-06-22T12:50:46;30.30;4.70
3136;DHT22;1578;47.658;9.922;2023-06-22T12:53:13;30.30;5.40
3136;DHT22;1578;47.658;9.922;2023-06-22T12:55:38;30.40;5.90
3136;DHT22;1578;47.658;9.922;2023-06-22T12:58:04;30.50;5.10
3136;DHT22;1578;47.658;9.922;2023-06-22T13:00:30;30.50;5.20
3136;DHT22;1578;47.658;9.922;2023-06-22T13:02:55;30.20;4.70
3136;DHT22;1578;47.658;9.922;2023-06-22T13:05:21;29.80;6.90
3136;DHT22;1578;47.658;9.922;2023-06-22T13:07:47;29.30;6.50
3136;DHT22;1578;47.658;9.922;2023-06-22T13:10:12;29.00;9.00
3136;DHT22;1578;47.658;9.922;2023-06-22T13:12:38;29.10;9.00
3136;DHT22;1578;47.658;9.922;2023-06-22T13:15:04;29.20;8.00
3136;DHT22;1578;47.658;9.922;2023-06-22T13:17:30;29.00;8.70
3136;DHT22;1578;47.658;9.922;2023-06-22T13:19:55;29.00;11.50
3136;DHT22;1578;47.658;9.922;2023-06-22T13:22:30;29.00;9.70
3136;DHT22;1578;47.658;9.922;2023-06-22T13:24:57;29.00;8.70
3136;DHT22;1578;47.658;9.922;2023-06-22T13:27:23;29.00;9.50
3136;DHT22;1578;47.658;9.922;2023-06-22T13:29:49;28.90;10.30
3136;DHT22;1578;47.658;9.922;2023-06-22T13:32:15;28.90;12.00
3136;DHT22;1578;47.658;9.922;2023-06-22T13:34:42;28.80;11.10
3136;DHT22;1578;47.658;9.922;2023-06-22T13:37:07;28.70;10.50
3136;DHT22;1578;47.658;9.922;2023-06-22T13:39:33;28.60;11.30
3136;DHT22;1578;47.658;9.922;2023-06-22T13:41:59;28.70;11.30
3136;DHT22;1578;47.658;9.922;2023-06-22T13:44:24;28.90;12.00
3136;DHT22;1578;47.658;9.922;2023-06-22T13:46:54;29.10;11.50
3136;DHT22;1578;47.658;9.922;2023-06-22T13:49:20;29.30;12.20
3136;DHT22;1578;47.658;9.922;2023-06-22T13:51:47;29.60;12.30
3136;DHT22;1578;47.658;9.922;2023-06-22T13:54:13;29.80;10.70
3136;DHT22;1578;47.658;9.922;2023-06-22T13:56:39;29.70;8.60
3136;DHT22;1578;47.658;9.922;2023-06-22T13:59:04;29.60;8.00
3136;DHT22;1578;47.658;9.922;2023-06-22T14:01:30;29.40;6.90
3136;DHT22;1578;47.658;9.922;2023-06-22T14:03:56;28.90;9.20
3136;DHT22;1578;47.658;9.922;2023-06-22T14:06:21;28.90;7.90
3136;DHT22;1578;47.658;9.922;2023-06-22T14:08:47;28.80;8.10
3136;DHT22;1578;47.658;9.922;2023-06-22T14:11:12;28.90;8.80
3136;DHT22;1578;47.658;9.922;2023-06-22T14:13:39;29.10;8.70
3136;DHT22;1578;47.658;9.922;2023-06-22T14:16:07;29.40;7.10
3136;DHT22;1578;47.658;9.922;2023-06-22T14:18:33;29.60;5.90
3136;DHT22;1578;47.658;9.922;2023-06-22T14:20:58;29.90;5.50
3136;DHT22;1578;47.658;9.922;2023-06-22T14:23:24;30.10;3.80
3136;DHT22;1578;47.658;9.922;2023-06-22T14:25:50;30.20;5.20
3136;DHT22;1578;47.658;9.922;2023-06-22T14:28:16;30.00;3.90
3136;DHT22;1578;47.658;9.922;2023-06-22T14:30:42;30.00;3.80
3136;DHT22;1578;47.658;9.922;2023-06-22T14:33:07;29.60;6.90
3136;DHT22;1578;47.658;9.922;2023-06-22T14:35:33;29.50;6.50
3136;DHT22;1578;47.658;9.922;2023-06-22T14:37:59;29.60;7.30
3136;DHT22;1578;47.658;9.922;2023-06-22T14:40:24;29.80;4.60
3136;DHT22;1578;47.658;9.922;2023-06-22T14:42:50;29.90;5.40
3136;DHT22;1578;47.658;9.922;2023-06-22T14:45:16;30.10;4.40
3136;DHT22;1578;47.658;9.922;2023-06-22T14:47:41;30.30;5.00
3136;DHT22;1578;47.658;9.922;2023-06-22T14:50:07;30.10;4.80
3136;DHT22;1578;47.658;9.922;2023-06-22T14:52:33;30.00;5.00
3136;DHT22;1578;47.658;9.922;2023-06-22T14:54:58;30.10;5.50
3136;DHT22;1578;47.658;9.922;2023-06-22T14:57:24;30.10;5.90
3136;DHT22;1578;47.658;9.922;2023-06-22T14:59:49;30.00;4.30
3136;DHT22;1578;47.658;9.922;2023-06-22T15:02:15;30.10;4.60
3136;DHT22;1578;47.658;9.922;2023-06-22T15:04:41;30.00;5.40
3136;DHT22;1578;47.658;9.922;2023-06-22T15:07:07;29.80;7.60
3136;DHT22;1578;47.658;9.922;2023-06-22T15:09:33;29.80;7.90
3136;DHT22;1578;47.658;9.922;2023-06-22T15:11:58;29.70;7.70
3136;DHT22;1578;47.658;9.922;2023-06-22T15:14:27;29.50;9.20
3136;DHT22;1578;47.658;9.922;2023-06-22T15:16:53;29.40;10.20
3136;DHT22;1578;47.658;9.922;2023-06-22T15:19:18;29.10;10.30
3136;DHT22;1578;47.658;9.922;2023-06-22T15:21:44;29.00;12.00
3136;DHT22;1578;47.658;9.922;2023-06-22T15:24:10;29.00;11.80
3136;DHT22;1578;47.658;9.922;2023-06-22T15:26:36;28.80;13.90
3136;DHT22;1578;47.658;9.922;2023-06-22T15:29:01;28.30;14.10
3136;DHT22;1578;47.658;9.922;2023-06-22T15:31:27;28.30;14.40
3136;DHT22;1578;47.658;9.922;2023-06-22T15:33:53;28.30;14.40
3136;DHT22;1578;47.658;9.922;2023-06-22T15:36:19;28.30;12.70
3136;DHT22;1578;47.658;9.922;2023-06-22T15:38:44;28.10;11.50
3136;DHT22;1578;47.658;9.922;2023-06-22T15:41:10;28.00;10.70
3136;DHT22;1578;47.658;9.922;2023-06-22T15:43:36;27.80;11.40
3136;DHT22;1578;47.658;9.922;2023-06-22T15:46:01;27.50;11.20
3136;DHT22;1578;47.658;9.922;2023-06-22T15:48:27;27.40;12.50
3136;DHT22;1578;47.658;9.922;2023-06-22T15:50:52;27.10;15.20
3136;DHT22;1578;47.658;9.922;2023-06-22T15:53:18;27.00;14.40
3136;DHT22;1578;47.658;9.922;2023-06-22T15:55:44;26.90;14.50
3136;DHT22;1578;47.658;9.922;2023-06-22T15:58:10;26.90;14.60
3136;DHT22;1578;47.658;9.922;2023-06-22T16:00:38;27.00;14.20
3136;DHT22;1578;47.658;9.922;2023-06-22T16:03:04;26.90;14.00
3136;DHT22;1578;47.658;9.922;2023-06-22T16:05:29;27.00;13.80
3136;DHT22;1578;47.658;9.922;2023-06-22T16:07:55;27.00;13.60
3136;DHT22;1578;47.658;9.922;2023-06-22T16:10:22;27.00;13.90